createdAt,value
2019-04-14T00:00:25.070Z,92.58
2019-04-14T00:01:24.242Z,92.58
2019-04-14T00:02:25.048Z,92.94
2019-04-14T00:03:24.172Z,92.83
2019-04-14T00:04:24.788Z,93.15
2019-04-14T00:05:24.164Z,92.73
2019-04-14T00:06:24.404Z,92.94
2019-04-14T00:07:25.405Z,92.63
2019-04-14T00:08:24.143Z,93.15
2019-04-14T00:09:25.166Z,93.35
2019-04-14T00:10:24.667Z,93.46
2019-04-14T00:11:24.113Z,93.04
2019-04-14T00:12:25.066Z,93.46
2019-04-14T00:13:24.079Z,93.04
2019-04-14T00:14:25.045Z,93.15
2019-04-14T00:15:31.018Z,92.94
2019-04-14T00:16:25.081Z,93.04
2019-04-14T00:17:24.010Z,93.25
2019-04-14T00:18:25.124Z,93.04
2019-04-14T00:19:24.009Z,93.04
2019-04-14T00:20:25.006Z,93.15
2019-04-14T00:21:23.965Z,93.15
2019-04-14T00:22:26.566Z,92.58
2019-04-14T00:23:23.949Z,92.90
2019-04-14T00:24:24.922Z,93.00
2019-04-14T00:25:23.927Z,92.27
2019-04-14T00:26:24.793Z,92.16
2019-04-14T00:27:23.924Z,92.06
2019-04-14T00:28:24.956Z,91.75
2019-04-14T00:29:23.931Z,91.33
2019-04-14T00:30:25.085Z,91.22
2019-04-14T00:31:23.993Z,91.54
2019-04-14T00:32:24.837Z,91.33
2019-04-14T00:33:23.882Z,91.33
2019-04-14T00:34:24.566Z,90.60
2019-04-14T00:35:23.815Z,91.33
2019-04-14T00:36:24.034Z,91.12
2019-04-14T00:37:25.100Z,91.33
2019-04-14T00:38:23.953Z,91.47
2019-04-14T00:39:24.953Z,91.58
2019-04-14T00:40:23.789Z,91.37
2019-04-14T00:41:34.371Z,91.79
2019-04-14T00:42:25.633Z,91.47
2019-04-14T00:43:24.454Z,91.62
2019-04-14T00:44:23.743Z,92.35
2019-04-14T00:45:34.057Z,92.04
2019-04-14T00:46:25.428Z,93.23
2019-04-14T00:47:24.637Z,92.92
2019-04-14T00:48:24.275Z,93.23
2019-04-14T00:49:24.691Z,93.23
2019-04-14T00:50:23.685Z,93.23
2019-04-14T00:51:24.506Z,93.07
2019-04-14T00:52:23.686Z,93.70
2019-04-14T00:53:23.635Z,93.59
2019-04-14T00:54:24.003Z,94.32
2019-04-14T00:55:23.600Z,94.01
2019-04-14T00:56:23.738Z,94.11
2019-04-14T00:57:24.696Z,94.78
2019-04-14T00:58:23.708Z,94.26
2019-04-14T00:59:24.531Z,93.95
2019-04-14T01:00:23.555Z,94.99
2019-04-14T01:01:24.357Z,94.68
2019-04-14T01:02:23.545Z,94.15
2019-04-14T01:03:24.461Z,95.45
2019-04-14T01:04:23.535Z,95.56
2019-04-14T01:05:24.124Z,94.72
2019-04-14T01:06:23.489Z,95.50
2019-04-14T01:07:24.169Z,95.18
2019-04-14T01:08:23.476Z,95.35
2019-04-14T01:09:24.005Z,95.81
2019-04-14T01:10:23.601Z,95.50
2019-04-14T01:11:23.421Z,95.18
2019-04-14T01:12:23.571Z,95.70
2019-04-14T01:13:24.533Z,95.60
2019-04-14T01:14:23.398Z,95.29
2019-04-14T01:15:24.585Z,96.12
2019-04-14T01:16:25.008Z,95.92
2019-04-14T01:17:24.413Z,96.44
2019-04-14T01:18:23.371Z,96.75
2019-04-14T01:19:24.360Z,96.65
2019-04-14T01:20:23.336Z,96.86
2019-04-14T01:21:24.224Z,96.65
2019-04-14T01:22:23.314Z,96.86
2019-04-14T01:23:23.972Z,96.86
2019-04-14T01:24:23.302Z,96.55
2019-04-14T01:25:23.899Z,96.65
2019-04-14T01:26:24.566Z,96.55
2019-04-14T01:27:23.483Z,96.44
2019-04-14T01:28:24.311Z,96.48
2019-04-14T01:29:23.373Z,96.75
2019-04-14T01:30:24.136Z,96.86
2019-04-14T01:31:23.222Z,96.80
2019-04-14T01:32:24.086Z,96.48
2019-04-14T01:33:23.189Z,95.86
2019-04-14T01:34:23.824Z,95.96
2019-04-14T01:35:23.188Z,96.55
2019-04-14T01:36:23.488Z,96.69
2019-04-14T01:37:23.150Z,96.48
2019-04-14T01:38:23.364Z,96.90
2019-04-14T01:39:24.215Z,96.59
2019-04-14T01:40:23.132Z,96.80
2019-04-14T01:41:23.943Z,96.69
2019-04-14T01:42:31.051Z,96.80
2019-04-14T01:43:23.512Z,96.48
2019-04-14T01:44:24.140Z,96.48
2019-04-14T01:45:23.263Z,96.80
2019-04-14T01:46:27.676Z,96.69
2019-04-14T01:47:24.914Z,96.11
2019-04-14T01:48:23.619Z,96.00
2019-04-14T01:49:23.014Z,96.31
2019-04-14T01:50:23.463Z,96.21
2019-04-14T01:51:22.994Z,96.36
2019-04-14T01:52:23.217Z,96.57
2019-04-14T01:53:22.983Z,95.94
2019-04-14T01:54:23.525Z,96.15
2019-04-14T01:55:22.964Z,96.36
2019-04-14T01:56:23.045Z,97.52
2019-04-14T01:57:24.195Z,98.31
2019-04-14T01:58:22.939Z,98.10
2019-04-14T01:59:24.079Z,98.05
2019-04-14T02:00:22.935Z,97.85
2019-04-14T02:01:23.844Z,97.95
2019-04-14T02:02:22.898Z,97.53
2019-04-14T02:03:23.867Z,97.42
2019-04-14T02:04:22.851Z,96.90
2019-04-14T02:05:23.558Z,96.90
2019-04-14T02:06:22.882Z,96.80
2019-04-14T02:07:23.340Z,96.53
2019-04-14T02:08:24.029Z,96.53
2019-04-14T02:09:22.979Z,96.63
2019-04-14T02:10:23.888Z,97.16
2019-04-14T02:11:22.775Z,96.84
2019-04-14T02:12:23.530Z,96.84
2019-04-14T02:13:22.749Z,96.00
2019-04-14T02:14:23.348Z,96.04
2019-04-14T02:15:22.739Z,96.21
2019-04-14T02:16:32.278Z,96.15
2019-04-14T02:17:24.203Z,96.04
2019-04-14T02:18:22.968Z,96.57
2019-04-14T02:19:24.075Z,96.57
2019-04-14T02:20:22.990Z,96.61
2019-04-14T02:21:23.763Z,97.03
2019-04-14T02:22:22.654Z,97.45
2019-04-14T02:23:23.639Z,97.52
2019-04-14T02:24:22.643Z,97.35
2019-04-14T02:25:23.113Z,97.83
2019-04-14T02:26:24.000Z,98.46
2019-04-14T02:27:23.170Z,98.14
2019-04-14T02:28:22.606Z,98.46
2019-04-14T02:29:23.337Z,98.25
2019-04-14T02:30:30.687Z,98.35
2019-04-14T02:31:43.371Z,98.41
2019-04-14T02:32:49.341Z,98.21
2019-04-14T02:33:58.795Z,98.21
2019-04-14T02:35:16.807Z,98.10
2019-04-14T02:36:04.007Z,97.36
2019-04-14T02:37:55.985Z,97.42
2019-04-14T02:38:57.512Z,96.94
2019-04-14T02:39:53.608Z,96.80
2019-04-14T02:40:53.643Z,96.37
2019-04-14T02:42:03.727Z,96.37
2019-04-14T02:42:46.466Z,97.00
2019-04-14T02:43:54.564Z,96.48
2019-04-14T02:45:53.971Z,95.96
2019-04-14T02:46:59.961Z,96.11
2019-04-14T02:48:52.261Z,96.21
2019-04-14T02:50:51.342Z,96.11
2019-04-14T02:51:50.052Z,96.25
2019-04-14T02:55:48.962Z,96.78
2019-04-14T02:56:52.830Z,96.47
2019-04-14T02:57:52.818Z,96.61
2019-04-14T02:59:52.840Z,97.03
2019-04-14T03:00:48.058Z,97.56
2019-04-14T03:02:52.193Z,97.66
2019-04-14T03:04:54.904Z,97.87
2019-04-14T03:05:51.584Z,97.87
2019-04-14T03:06:50.354Z,97.29
2019-04-14T03:08:52.027Z,97.29
2019-04-14T03:09:48.557Z,97.92
2019-04-14T03:10:49.558Z,98.23
2019-04-14T03:11:48.856Z,98.44
2019-04-14T03:12:53.921Z,97.86
2019-04-14T03:15:56.782Z,98.38
2019-04-14T03:17:01.000Z,98.23
2019-04-14T03:18:50.613Z,99.18
2019-04-14T03:19:55.023Z,99.07
2019-04-14T03:20:48.293Z,98.80
2019-04-14T03:21:49.103Z,99.18
2019-04-14T03:23:53.391Z,99.28
2019-04-14T03:24:40.139Z,99.49
2019-04-14T03:25:43.658Z,99.38
2019-04-14T03:26:51.954Z,99.38
2019-04-14T03:28:02.570Z,99.28
2019-04-14T03:28:45.973Z,99.18
2019-04-14T03:29:49.849Z,98.97
2019-04-14T03:35:23.186Z,99.01
2019-04-14T03:38:54.974Z,99.22
2019-04-14T03:39:49.762Z,99.74
2019-04-14T03:40:54.907Z,99.85
2019-04-14T03:41:50.540Z,99.70
2019-04-14T03:43:41.642Z,99.85
2019-04-14T03:44:49.500Z,99.54
2019-04-14T03:45:55.148Z,99.96
2019-04-14T03:46:49.053Z,99.99
2019-04-14T03:48:15.067Z,99.99
2019-04-14T03:49:44.636Z,99.99
2019-04-14T03:50:55.475Z,99.99
2019-04-14T03:51:54.786Z,99.99
2019-04-14T03:52:59.602Z,99.99
2019-04-14T03:53:50.668Z,99.99
2019-04-14T03:54:40.522Z,99.99
2019-04-14T03:55:31.738Z,99.99
2019-04-14T03:56:22.873Z,99.96
2019-04-14T03:57:21.630Z,99.99
2019-04-14T03:58:22.587Z,99.99
2019-04-14T03:59:21.998Z,99.99
2019-04-14T04:00:22.375Z,99.99
2019-04-14T04:01:21.653Z,99.99
2019-04-14T04:02:22.614Z,99.99
2019-04-14T04:03:21.902Z,99.99
2019-04-14T04:04:22.678Z,99.99
2019-04-14T04:05:21.619Z,99.99
2019-04-14T04:06:22.459Z,99.99
2019-04-14T04:07:21.539Z,99.99
2019-04-14T04:08:22.414Z,99.99
2019-04-14T04:09:21.514Z,99.99
2019-04-14T04:10:22.550Z,99.99
2019-04-14T04:11:21.549Z,99.99
2019-04-14T04:12:22.459Z,99.99
2019-04-14T04:13:21.598Z,99.99
2019-04-14T04:14:22.445Z,99.99
2019-04-14T04:15:21.482Z,99.99
2019-04-14T04:16:22.358Z,99.99
2019-04-14T04:17:21.445Z,99.99
2019-04-14T04:18:22.008Z,99.99
2019-04-14T04:19:21.386Z,99.99
2019-04-14T04:20:21.750Z,99.99
2019-04-14T04:21:22.482Z,99.99
2019-04-14T04:22:21.597Z,99.99
2019-04-14T04:23:21.372Z,99.99
2019-04-14T04:24:21.368Z,99.99
2019-04-14T04:25:22.511Z,99.99
2019-04-14T04:26:21.334Z,99.99
2019-04-14T04:27:22.176Z,99.99
2019-04-14T04:28:21.302Z,99.99
2019-04-14T04:29:22.306Z,99.99
2019-04-14T04:30:21.281Z,99.99
2019-04-14T04:31:22.040Z,99.99
2019-04-14T04:32:21.252Z,99.99
2019-04-14T04:33:22.023Z,99.99
2019-04-14T04:34:21.227Z,99.99
2019-04-14T04:35:21.719Z,99.99
2019-04-14T04:36:22.421Z,99.99
2019-04-14T04:37:21.418Z,99.99
2019-04-14T04:38:22.303Z,99.99
2019-04-14T04:39:21.477Z,99.99
2019-04-14T04:40:22.227Z,99.99
2019-04-14T04:41:21.163Z,99.99
2019-04-14T04:42:21.942Z,99.99
2019-04-14T04:43:21.186Z,99.99
2019-04-14T04:44:22.308Z,99.99
2019-04-14T04:45:21.394Z,99.99
2019-04-14T04:46:22.052Z,99.99
2019-04-14T04:47:21.094Z,99.99
2019-04-14T04:48:21.780Z,99.99
2019-04-14T04:49:24.865Z,99.99
2019-04-14T04:50:22.094Z,99.99
2019-04-14T04:51:21.044Z,99.99
2019-04-14T04:52:21.304Z,99.99
2019-04-14T04:53:22.128Z,99.99
2019-04-14T04:54:21.123Z,99.99
2019-04-14T04:55:21.981Z,99.82
2019-04-14T04:56:21.029Z,99.93
2019-04-14T04:57:22.057Z,99.71
2019-04-14T04:58:21.637Z,99.51
2019-04-14T04:59:21.281Z,99.82
2019-04-14T05:00:22.096Z,99.99
2019-04-14T05:01:21.038Z,99.61
2019-04-14T05:02:22.072Z,99.57
2019-04-14T05:03:21.192Z,99.46
2019-04-14T05:04:22.019Z,99.51
2019-04-14T05:05:21.031Z,99.08
2019-04-14T05:06:23.250Z,99.04
2019-04-14T05:07:20.978Z,99.04
2019-04-14T05:08:21.719Z,99.25
2019-04-14T05:09:21.058Z,99.04
2019-04-14T05:10:21.719Z,99.31
2019-04-14T05:11:20.974Z,98.79
2019-04-14T05:12:21.689Z,98.89
2019-04-14T05:13:20.804Z,98.79
2019-04-14T05:14:21.593Z,98.11
2019-04-14T05:15:20.796Z,98.11
2019-04-14T05:16:21.456Z,97.80
2019-04-14T05:17:21.225Z,97.75
2019-04-14T05:18:22.095Z,97.69
2019-04-14T05:19:27.808Z,97.34
2019-04-14T05:20:22.477Z,96.08
2019-04-14T05:21:21.429Z,96.50
2019-04-14T05:22:21.217Z,96.08
2019-04-14T05:23:21.327Z,95.72
2019-04-14T05:24:20.684Z,95.35
2019-04-14T05:25:21.656Z,95.62
2019-04-14T05:26:21.964Z,95.72
2019-04-14T05:27:21.106Z,95.09
2019-04-14T05:28:21.949Z,95.51
2019-04-14T05:29:21.103Z,94.53
2019-04-14T05:30:21.774Z,93.90
2019-04-14T05:31:20.772Z,94.11
2019-04-14T05:32:21.596Z,94.53
2019-04-14T05:33:20.755Z,94.01
2019-04-14T05:34:21.565Z,94.53
2019-04-14T05:35:20.671Z,93.70
2019-04-14T05:36:21.468Z,93.33
2019-04-14T05:37:20.557Z,93.08
2019-04-14T05:38:21.198Z,93.33
2019-04-14T05:39:20.523Z,93.19
2019-04-14T05:40:21.049Z,92.77
2019-04-14T05:41:20.509Z,92.66
2019-04-14T05:42:25.132Z,92.14
2019-04-14T05:43:30.276Z,92.94
2019-04-14T05:44:21.479Z,91.79
2019-04-14T05:45:20.465Z,92.00
2019-04-14T05:46:20.752Z,91.89
2019-04-14T05:47:20.467Z,91.94
2019-04-14T05:48:20.517Z,92.14
2019-04-14T05:49:30.628Z,92.98
2019-04-14T05:50:22.615Z,92.88
2019-04-14T05:51:22.132Z,93.19
2019-04-14T05:52:20.666Z,93.13
2019-04-14T05:53:20.381Z,93.54
2019-04-14T05:54:20.673Z,93.61
2019-04-14T05:55:20.388Z,93.29
2019-04-14T05:56:20.688Z,93.23
2019-04-14T05:57:20.388Z,93.40
2019-04-14T05:58:20.748Z,93.19
2019-04-14T05:59:20.300Z,93.29
2019-04-14T06:00:21.211Z,93.19
2019-04-14T06:01:20.410Z,92.66
2019-04-14T06:02:20.306Z,93.19
2019-04-14T06:03:21.250Z,93.08
2019-04-14T06:04:20.262Z,92.00
2019-04-14T06:05:21.139Z,91.79
2019-04-14T06:06:20.232Z,92.04
2019-04-14T06:07:20.227Z,91.79
2019-04-14T06:08:20.219Z,91.58
2019-04-14T06:09:20.226Z,91.89
2019-04-14T06:10:20.185Z,92.10
2019-04-14T06:11:20.167Z,91.79
2019-04-14T06:12:20.187Z,91.89
2019-04-14T06:13:20.148Z,92.00
2019-04-14T06:14:20.144Z,91.89
2019-04-14T06:15:20.133Z,92.06
2019-04-14T06:16:20.151Z,92.21
2019-04-14T06:17:20.101Z,91.96
2019-04-14T06:18:20.105Z,91.54
2019-04-14T06:19:20.081Z,92.06
2019-04-14T06:20:20.072Z,92.06
2019-04-14T06:21:20.062Z,91.54
2019-04-14T06:22:20.062Z,90.97
2019-04-14T06:23:20.070Z,92.22
2019-04-14T06:24:20.033Z,91.50
2019-04-14T06:25:20.050Z,91.08
2019-04-14T06:26:20.019Z,91.50
2019-04-14T06:27:19.997Z,91.46
2019-04-14T06:28:20.062Z,90.66
2019-04-14T06:29:19.976Z,90.93
2019-04-14T06:30:19.976Z,91.35
2019-04-14T06:31:19.959Z,91.04
2019-04-14T06:32:19.944Z,91.31
2019-04-14T06:33:19.965Z,91.20
2019-04-14T06:34:19.944Z,90.16
2019-04-14T06:35:19.909Z,90.06
2019-04-14T06:36:19.897Z,89.54
2019-04-14T06:37:19.892Z,90.01
2019-04-14T06:38:19.879Z,90.22
2019-04-14T06:39:19.898Z,89.60
2019-04-14T06:40:19.853Z,89.70
2019-04-14T06:41:19.843Z,89.60
2019-04-14T06:42:19.831Z,89.56
2019-04-14T06:43:19.827Z,89.66
2019-04-14T06:44:19.819Z,89.14
2019-04-14T06:45:19.847Z,89.04
2019-04-14T06:46:19.786Z,89.20
2019-04-14T06:47:19.783Z,88.48
2019-04-14T06:48:19.781Z,88.58
2019-04-14T06:49:19.780Z,88.33
2019-04-14T06:50:19.750Z,88.23
2019-04-14T06:51:19.748Z,88.19
2019-04-14T06:52:19.728Z,86.80
2019-04-14T06:53:19.711Z,86.49
2019-04-14T06:54:19.706Z,86.49
2019-04-14T06:55:19.692Z,85.96
2019-04-14T06:56:19.691Z,86.24
2019-04-14T06:57:19.667Z,86.34
2019-04-14T06:58:19.690Z,86.27
2019-04-14T06:59:19.658Z,86.49
2019-04-14T07:00:19.657Z,86.42
2019-04-14T07:01:19.704Z,86.63
2019-04-14T07:02:19.635Z,87.77
2019-04-14T07:03:19.613Z,87.25
2019-04-14T07:04:19.606Z,87.35
2019-04-14T07:05:19.581Z,87.35
2019-04-14T07:06:19.617Z,86.77
2019-04-14T07:07:19.555Z,87.04
2019-04-14T07:08:19.546Z,86.94
2019-04-14T07:09:19.535Z,87.21
2019-04-14T07:10:19.522Z,86.80
2019-04-14T07:11:19.522Z,87.01
2019-04-14T07:12:19.513Z,86.86
2019-04-14T07:13:19.871Z,86.96
2019-04-14T07:14:19.479Z,86.30
2019-04-14T07:15:19.471Z,84.84
2019-04-14T07:16:19.460Z,85.16
2019-04-14T07:17:19.458Z,85.05
2019-04-14T07:18:19.451Z,85.33
2019-04-14T07:19:19.450Z,85.64
2019-04-14T07:20:19.419Z,84.56
2019-04-14T07:21:19.412Z,85.08
2019-04-14T07:22:19.386Z,83.84
2019-04-14T07:23:19.386Z,83.94
2019-04-14T07:24:19.378Z,84.77
2019-04-14T07:25:19.379Z,83.80
2019-04-14T07:26:19.367Z,82.24
2019-04-14T07:27:19.354Z,82.97
2019-04-14T07:28:19.322Z,83.76
2019-04-14T07:29:19.321Z,81.23
2019-04-14T07:30:19.299Z,79.33
2019-04-14T07:31:19.319Z,78.99
2019-04-14T07:32:19.278Z,78.95
2019-04-14T07:33:19.269Z,79.47
2019-04-14T07:34:19.261Z,78.53
2019-04-14T07:35:19.271Z,77.33
2019-04-14T07:36:19.236Z,79.23
2019-04-14T07:37:19.367Z,79.37
2019-04-14T07:38:19.213Z,81.44
2019-04-14T07:39:19.212Z,80.85
2019-04-14T07:40:19.201Z,81.27
2019-04-14T07:41:19.194Z,81.06
2019-04-14T07:42:26.726Z,81.27
2019-04-14T07:43:27.730Z,82.14
2019-04-14T07:44:19.152Z,81.48
2019-04-14T07:45:19.158Z,82.62
2019-04-14T07:46:19.120Z,83.86
2019-04-14T07:47:19.137Z,81.99
2019-04-14T07:48:19.098Z,82.31
2019-04-14T07:49:19.090Z,82.37
2019-04-14T07:50:19.137Z,81.34
2019-04-14T07:51:19.067Z,82.06
2019-04-14T07:52:19.062Z,81.34
2019-04-14T07:53:19.046Z,82.27
2019-04-14T07:54:19.034Z,81.44
2019-04-14T07:55:19.060Z,81.65
2019-04-14T07:56:19.037Z,81.40
2019-04-14T07:57:19.005Z,81.51
2019-04-14T07:58:18.992Z,81.40
2019-04-14T07:59:19.025Z,81.30
2019-04-14T08:00:18.984Z,80.30
2019-04-14T08:01:18.995Z,80.51
2019-04-14T08:02:18.944Z,80.82
2019-04-14T08:03:18.933Z,81.23
2019-04-14T08:04:18.925Z,80.92
2019-04-14T08:05:18.916Z,80.99
2019-04-14T08:06:18.902Z,80.05
2019-04-14T08:07:18.906Z,79.54
2019-04-14T08:08:18.876Z,79.02
2019-04-14T08:09:18.868Z,79.99
2019-04-14T08:10:18.857Z,80.51
2019-04-14T08:11:18.875Z,80.99
2019-04-14T08:12:18.848Z,79.23
2019-04-14T08:13:18.861Z,79.74
2019-04-14T08:14:18.814Z,79.58
2019-04-14T08:15:18.806Z,80.19
2019-04-14T08:16:18.789Z,79.88
2019-04-14T08:17:18.776Z,80.61
2019-04-14T08:18:18.774Z,80.92
2019-04-14T08:19:18.863Z,80.71
2019-04-14T08:20:27.279Z,80.40
2019-04-14T08:21:19.743Z,80.40
2019-04-14T08:22:18.730Z,79.47
2019-04-14T08:23:18.715Z,80.51
2019-04-14T08:24:18.713Z,80.30
2019-04-14T08:25:18.725Z,80.47
2019-04-14T08:26:18.845Z,79.95
2019-04-14T08:27:18.666Z,79.95
2019-04-14T08:28:21.204Z,79.88
2019-04-14T08:29:18.707Z,80.36
2019-04-14T08:30:18.662Z,80.40
2019-04-14T08:31:18.630Z,80.51
2019-04-14T08:32:18.614Z,80.30
2019-04-14T08:33:18.607Z,81.02
2019-04-14T08:34:18.594Z,81.44
2019-04-14T08:35:18.579Z,80.30
2019-04-14T08:36:18.605Z,79.78
2019-04-14T08:37:18.560Z,80.30
2019-04-14T08:38:18.565Z,80.47
2019-04-14T08:39:18.541Z,80.99
2019-04-14T08:40:18.560Z,80.57
2019-04-14T08:41:18.525Z,80.78
2019-04-14T08:42:18.519Z,80.16
2019-04-14T08:43:18.489Z,80.74
2019-04-14T08:44:18.498Z,80.33
2019-04-14T08:45:18.464Z,79.30
2019-04-14T08:46:18.460Z,79.50
2019-04-14T08:47:18.483Z,79.40
2019-04-14T08:48:18.444Z,78.78
2019-04-14T08:49:18.427Z,78.43
2019-04-14T08:50:18.422Z,78.02
2019-04-14T08:51:18.413Z,78.74
2019-04-14T08:52:18.400Z,78.74
2019-04-14T08:53:18.409Z,79.57
2019-04-14T08:54:18.403Z,79.22
2019-04-14T08:55:18.363Z,78.70
2019-04-14T08:56:18.345Z,77.67
2019-04-14T08:57:18.340Z,78.36
2019-04-14T08:58:18.350Z,76.81
2019-04-14T08:59:18.343Z,76.39
2019-04-14T09:00:18.325Z,75.63
2019-04-14T09:01:18.290Z,76.29
2019-04-14T09:02:18.303Z,76.29
2019-04-14T09:03:18.273Z,76.50
2019-04-14T09:04:18.256Z,76.15
2019-04-14T09:05:18.252Z,75.78
2019-04-14T09:06:18.239Z,75.46
2019-04-14T09:07:18.231Z,76.70
2019-04-14T09:08:18.276Z,76.81
2019-04-14T09:09:18.249Z,77.12
2019-04-14T09:10:18.189Z,77.26
2019-04-14T09:11:18.177Z,78.39
2019-04-14T09:12:18.170Z,77.67
2019-04-14T09:13:18.177Z,78.08
2019-04-14T09:14:18.162Z,78.36
2019-04-14T09:15:18.191Z,77.47
2019-04-14T09:16:18.126Z,77.47
2019-04-14T09:17:18.172Z,76.67
2019-04-14T09:18:18.107Z,78.22
2019-04-14T09:19:18.110Z,78.85
2019-04-14T09:20:18.114Z,78.64
2019-04-14T09:21:18.127Z,78.39
2019-04-14T09:22:18.058Z,78.19
2019-04-14T09:23:18.083Z,78.08
2019-04-14T09:24:18.046Z,77.77
2019-04-14T09:25:18.036Z,78.67
2019-04-14T09:26:18.033Z,77.56
2019-04-14T09:27:18.012Z,78.08
2019-04-14T09:28:17.998Z,76.84
2019-04-14T09:29:17.978Z,78.43
2019-04-14T09:30:17.967Z,78.43
2019-04-14T09:31:18.000Z,78.64
2019-04-14T09:32:17.943Z,78.43
2019-04-14T09:33:17.931Z,78.53
2019-04-14T09:34:17.926Z,78.43
2019-04-14T09:35:17.910Z,78.53
2019-04-14T09:36:17.936Z,78.39
2019-04-14T09:37:17.915Z,78.22
2019-04-14T09:38:17.881Z,78.81
2019-04-14T09:39:17.866Z,78.60
2019-04-14T09:40:17.860Z,79.63
2019-04-14T09:41:17.936Z,78.64
2019-04-14T09:42:17.870Z,79.33
2019-04-14T09:43:17.855Z,78.19
2019-04-14T09:44:17.814Z,78.50
2019-04-14T09:45:17.804Z,78.60
2019-04-14T09:46:17.864Z,78.60
2019-04-14T09:47:17.781Z,78.39
2019-04-14T09:48:17.768Z,77.98
2019-04-14T09:49:17.762Z,78.39
2019-04-14T09:50:17.753Z,78.50
2019-04-14T09:51:17.767Z,78.50
2019-04-14T09:52:17.728Z,79.12
2019-04-14T09:53:17.792Z,79.47
2019-04-14T09:54:17.701Z,79.12
2019-04-14T09:55:17.690Z,78.70
2019-04-14T09:56:17.720Z,77.77
2019-04-14T09:57:17.682Z,77.09
2019-04-14T09:58:17.656Z,77.56
2019-04-14T09:59:17.652Z,78.33
2019-04-14T10:00:17.645Z,78.95
2019-04-14T10:01:17.652Z,79.33
2019-04-14T10:02:17.645Z,78.60
2019-04-14T10:03:17.599Z,78.08
2019-04-14T10:04:17.591Z,78.29
2019-04-14T10:05:17.581Z,78.50
2019-04-14T10:06:17.583Z,78.33
2019-04-14T10:07:17.565Z,78.33
2019-04-14T10:08:17.563Z,79.47
2019-04-14T10:09:17.571Z,79.16
2019-04-14T10:10:17.540Z,78.22
2019-04-14T10:11:17.513Z,78.39
2019-04-14T10:12:17.530Z,78.29
2019-04-14T10:13:17.504Z,77.98
2019-04-14T10:14:17.483Z,77.36
2019-04-14T10:15:17.495Z,77.91
2019-04-14T10:16:17.483Z,77.98
2019-04-14T10:17:17.452Z,78.70
2019-04-14T10:18:17.432Z,79.57
2019-04-14T10:19:17.424Z,78.29
2019-04-14T10:20:17.451Z,78.33
2019-04-14T10:21:17.986Z,78.12
2019-04-14T10:22:17.412Z,78.64
2019-04-14T10:23:17.398Z,78.64
2019-04-14T10:24:17.381Z,78.33
2019-04-14T10:25:17.374Z,78.22
2019-04-14T10:26:17.393Z,78.91
2019-04-14T10:27:17.341Z,78.81
2019-04-14T10:28:17.324Z,77.87
2019-04-14T10:29:17.339Z,77.98
2019-04-14T10:30:17.353Z,77.15
2019-04-14T10:31:17.293Z,78.08
2019-04-14T10:32:17.292Z,78.33
2019-04-14T10:33:17.276Z,78.12
2019-04-14T10:34:17.256Z,77.87
2019-04-14T10:35:17.285Z,78.02
2019-04-14T10:36:17.253Z,77.91
2019-04-14T10:37:17.226Z,77.81
2019-04-14T10:38:17.215Z,78.12
2019-04-14T10:39:17.217Z,77.81
2019-04-14T10:40:17.215Z,78.74
2019-04-14T10:41:17.176Z,78.85
2019-04-14T10:42:17.206Z,79.36
2019-04-14T10:43:17.211Z,78.81
2019-04-14T10:44:17.149Z,79.53
2019-04-14T10:45:18.492Z,78.39
2019-04-14T10:46:17.128Z,78.39
2019-04-14T10:47:17.145Z,78.70
2019-04-14T10:48:17.098Z,78.91
2019-04-14T10:49:17.164Z,79.74
2019-04-14T10:50:29.985Z,80.22
2019-04-14T10:51:29.551Z,81.15
2019-04-14T10:52:18.063Z,80.84
2019-04-14T10:53:17.071Z,79.80
2019-04-14T10:54:17.096Z,80.74
2019-04-14T10:55:17.089Z,81.35
2019-04-14T10:56:17.011Z,83.46
2019-04-14T10:57:17.004Z,82.43
2019-04-14T10:58:17.008Z,82.64
2019-04-14T10:59:16.980Z,83.50
2019-04-14T11:00:16.986Z,83.81
2019-04-14T11:01:16.991Z,85.32
2019-04-14T11:02:16.956Z,84.81
2019-04-14T11:03:16.932Z,85.02
2019-04-14T11:04:16.921Z,84.29
2019-04-14T11:05:16.912Z,85.11
2019-04-14T11:06:16.929Z,85.02
2019-04-14T11:07:16.951Z,84.50
2019-04-14T11:08:16.940Z,85.18
2019-04-14T11:09:16.883Z,84.56
2019-04-14T11:10:16.870Z,84.87
2019-04-14T11:11:16.854Z,85.60
2019-04-14T11:12:16.832Z,85.35
2019-04-14T11:13:16.848Z,85.08
2019-04-14T11:14:16.812Z,85.45
2019-04-14T11:15:16.862Z,84.42
2019-04-14T11:16:16.816Z,84.00
2019-04-14T11:17:16.800Z,83.73
2019-04-14T11:18:16.799Z,84.36
2019-04-14T11:19:16.763Z,86.01
2019-04-14T11:20:16.762Z,85.28
2019-04-14T11:21:16.731Z,84.97
2019-04-14T11:22:16.739Z,85.91
2019-04-14T11:23:16.720Z,86.63
2019-04-14T11:24:16.702Z,87.46
2019-04-14T11:25:16.694Z,86.52
2019-04-14T11:26:16.679Z,87.56
2019-04-14T11:27:16.698Z,87.41
2019-04-14T11:28:16.659Z,87.66
2019-04-14T11:29:16.660Z,86.32
2019-04-14T11:30:16.636Z,86.88
2019-04-14T11:31:16.623Z,87.46
2019-04-14T11:32:16.610Z,87.04
2019-04-14T11:33:16.641Z,87.81
2019-04-14T11:34:16.599Z,88.01
2019-04-14T11:35:16.831Z,88.39
2019-04-14T11:36:16.570Z,88.12
2019-04-14T11:37:16.569Z,89.40
2019-04-14T11:38:16.555Z,89.29
2019-04-14T11:39:16.549Z,88.61
2019-04-14T11:40:16.553Z,90.16
2019-04-14T11:41:16.513Z,91.16
2019-04-14T11:42:16.513Z,90.91
2019-04-14T11:43:16.520Z,89.29
2019-04-14T11:44:16.502Z,89.50
2019-04-14T11:45:16.475Z,89.29
2019-04-14T11:46:16.475Z,90.53
2019-04-14T11:47:16.528Z,89.71
2019-04-14T11:48:16.439Z,88.88
2019-04-14T11:49:16.480Z,89.15
2019-04-14T11:50:16.457Z,90.53
2019-04-14T11:51:16.403Z,88.36
2019-04-14T11:52:16.400Z,88.78
2019-04-14T11:53:16.378Z,89.09
2019-04-14T11:54:16.454Z,90.53
2019-04-14T11:55:16.358Z,90.60
2019-04-14T11:56:16.360Z,90.50
2019-04-14T11:57:16.395Z,90.62
2019-04-14T11:58:16.335Z,90.41
2019-04-14T11:59:16.321Z,88.90
2019-04-14T12:00:16.316Z,89.32
2019-04-14T12:01:16.353Z,89.42
2019-04-14T12:02:16.288Z,88.74
2019-04-14T12:03:16.271Z,90.56
2019-04-14T12:04:16.270Z,90.70
2019-04-14T12:05:16.258Z,90.29
2019-04-14T12:06:16.245Z,90.60
2019-04-14T12:07:16.255Z,90.91
2019-04-14T12:08:16.244Z,90.50
2019-04-14T12:09:16.203Z,88.74
2019-04-14T12:10:16.204Z,89.98
2019-04-14T12:11:16.222Z,89.36
2019-04-14T12:12:16.184Z,89.36
2019-04-14T12:13:16.255Z,89.46
2019-04-14T12:14:16.156Z,90.19
2019-04-14T12:15:16.702Z,89.77
2019-04-14T12:16:16.170Z,90.39
2019-04-14T12:17:16.124Z,91.11
2019-04-14T12:18:16.102Z,90.60
2019-04-14T12:19:16.110Z,91.63
2019-04-14T12:20:16.101Z,91.11
2019-04-14T12:21:16.117Z,91.22
2019-04-14T12:22:16.066Z,88.94
2019-04-14T12:23:16.297Z,90.39
2019-04-14T12:24:16.047Z,90.23
2019-04-14T12:25:16.029Z,91.26
2019-04-14T12:26:16.017Z,91.84
2019-04-14T12:27:16.002Z,91.01
2019-04-14T12:28:17.237Z,90.44
2019-04-14T12:29:16.754Z,91.47
2019-04-14T12:30:16.017Z,91.36
2019-04-14T12:31:17.300Z,92.09
2019-04-14T12:32:17.122Z,92.19
2019-04-14T12:33:15.946Z,92.30
2019-04-14T12:34:18.245Z,92.50
2019-04-14T12:35:15.915Z,92.30
2019-04-14T12:36:15.904Z,91.26
2019-04-14T12:37:15.898Z,90.99
2019-04-14T12:38:15.898Z,92.09
2019-04-14T12:39:15.872Z,91.30
2019-04-14T12:40:15.873Z,92.13
2019-04-14T12:41:15.867Z,92.61
2019-04-14T12:42:15.836Z,92.13
2019-04-14T12:43:15.860Z,91.93
2019-04-14T12:44:15.827Z,92.49
2019-04-14T12:45:15.849Z,92.28
2019-04-14T12:46:15.791Z,92.07
2019-04-14T12:47:15.837Z,91.76
2019-04-14T12:48:15.770Z,92.59
2019-04-14T12:49:15.761Z,92.18
2019-04-14T12:50:15.814Z,92.80
2019-04-14T12:51:15.776Z,92.84
2019-04-14T12:52:21.547Z,94.08
2019-04-14T12:53:16.715Z,94.29
2019-04-14T12:54:15.699Z,93.56
2019-04-14T12:55:15.688Z,93.66
2019-04-14T12:56:15.684Z,94.49
2019-04-14T12:57:15.702Z,94.91
2019-04-14T12:58:15.660Z,95.70
2019-04-14T12:59:15.646Z,95.18
2019-04-14T13:00:15.638Z,95.07
2019-04-14T13:01:15.624Z,95.18
2019-04-14T13:02:15.613Z,94.45
2019-04-14T13:03:15.648Z,94.24
2019-04-14T13:04:15.598Z,94.39
2019-04-14T13:05:15.628Z,94.18
2019-04-14T13:06:15.565Z,95.43
2019-04-14T13:07:15.556Z,95.12
2019-04-14T13:08:15.549Z,94.81
2019-04-14T13:09:15.584Z,94.60
2019-04-14T13:10:15.519Z,93.98
2019-04-14T13:11:15.541Z,94.18
2019-04-14T13:12:23.082Z,94.39
2019-04-14T13:13:15.547Z,94.49
2019-04-14T13:14:15.488Z,95.01
2019-04-14T13:15:23.113Z,95.01
2019-04-14T13:16:24.311Z,95.43